Terminal Aerodrome Forecast
Issued by NWS Tallahassee, FL

Home | Current Version | Previous Version | Text Only | Print | Product List | Glossary On
Versions: 1 2 3 4 5 6 7 8 9 10 11 12 13
254
FTUS42 KTAE 270526
TAFTLH
TAF
KTLH 270526Z 2706/2806 26003KT P6SM SCT040 BKN250
      TEMPO 2711/2713 4SM BR FEW005=

USA.gov is the U.S. government's official web portal to all federal, state and local government web resources and services.